sensor_id;sensor_type;location;lat;lon;timestamp;pressure;altitude;pressure_sealevel;temperature;humidity
36828;BME280;22766;48.042;11.192;2023-03-21T00:00:28;95224.84;;;5.55;100.00
36828;BME280;22766;48.042;11.192;2023-03-21T00:02:55;95224.84;;;5.55;100.00
36828;BME280;22766;48.042;11.192;2023-03-21T00:05:21;95231.81;;;5.53;100.00
36828;BME280;22766;48.042;11.192;2023-03-21T00:07:48;95227.41;;;5.55;100.00
36828;BME280;22766;48.042;11.192;2023-03-21T00:10:15;95224.63;;;5.58;100.00
36828;BME280;22766;48.042;11.192;2023-03-21T00:12:55;95226.38;;;5.57;100.00
36828;BME280;22766;48.042;11.192;2023-03-21T00:15:25;95217.75;;;5.58;100.00
36828;BME280;22766;48.042;11.192;2023-03-21T00:18:03;95216.13;;;5.57;100.00
36828;BME280;22766;48.042;11.192;2023-03-21T00:20:30;95216.59;;;5.51;100.00
36828;BME280;22766;48.042;11.192;2023-03-21T00:23:00;95213.00;;;5.43;100.00
36828;BME280;22766;48.042;11.192;2023-03-21T00:25:27;95201.47;;;5.37;100.00
36828;BME280;22766;48.042;11.192;2023-03-21T00:27:53;95210.75;;;5.38;100.00
36828;BME280;22766;48.042;11.192;2023-03-21T00:30:33;95208.31;;;5.37;100.00
36828;BME280;22766;48.042;11.192;2023-03-21T02:51:39;95142.69;;;5.47;100.00
36828;BME280;22766;48.042;11.192;2023-03-21T02:54:14;95140.13;;;5.47;100.00
36828;BME280;22766;48.042;11.192;2023-03-21T02:57:02;95139.06;;;5.49;100.00
36828;BME280;22766;48.042;11.192;2023-03-21T02:59:30;95138.16;;;5.50;100.00
36828;BME280;22766;48.042;11.192;2023-03-21T03:02:05;95132.34;;;5.48;100.00
36828;BME280;22766;48.042;11.192;2023-03-21T03:04:33;95147.69;;;5.48;100.00
36828;BME280;22766;48.042;11.192;2023-03-21T03:07:10;95136.88;;;5.45;100.00
36828;BME280;22766;48.042;11.192;2023-03-21T03:09:57;95134.66;;;5.40;100.00
36828;BME280;22766;48.042;11.192;2023-03-21T03:23:44;95127.22;;;5.48;100.00
36828;BME280;22766;48.042;11.192;2023-03-21T03:26:42;95120.22;;;5.50;100.00
36828;BME280;22766;48.042;11.192;2023-03-21T03:29:15;95124.41;;;5.51;100.00
36828;BME280;22766;48.042;11.192;2023-03-21T03:31:55;95115.22;;;5.49;100.00
36828;BME280;22766;48.042;11.192;2023-03-21T03:34:29;95122.78;;;5.50;100.00
36828;BME280;22766;48.042;11.192;2023-03-21T03:37:02;95137.56;;;5.47;100.00
36828;BME280;22766;48.042;11.192;2023-03-21T03:39:37;95129.28;;;5.43;100.00
36828;BME280;22766;48.042;11.192;2023-03-21T03:42:28;95128.16;;;5.36;100.00
36828;BME280;22766;48.042;11.192;2023-03-21T03:45:04;95122.44;;;5.33;100.00
36828;BME280;22766;48.042;11.192;2023-03-21T03:47:51;95129.78;;;5.26;100.00
36828;BME280;22766;48.042;11.192;2023-03-21T03:55:44;95127.91;;;5.06;100.00
36828;BME280;22766;48.042;11.192;2023-03-21T03:58:17;95129.78;;;5.04;100.00
36828;BME280;22766;48.042;11.192;2023-03-21T04:00:50;95128.16;;;5.03;100.00
36828;BME280;22766;48.042;11.192;2023-03-21T04:03:17;95126.19;;;5.07;100.00
36828;BME280;22766;48.042;11.192;2023-03-21T04:05:44;95125.03;;;5.11;100.00
36828;BME280;22766;48.042;11.192;2023-03-21T04:08:14;95126.75;;;5.10;100.00
36828;BME280;22766;48.042;11.192;2023-03-21T04:10:46;95124.78;;;5.14;100.00
36828;BME280;22766;48.042;11.192;2023-03-21T04:13:13;95119.19;;;5.20;100.00
36828;BME280;22766;48.042;11.192;2023-03-21T04:15:47;95118.63;;;5.27;100.00
36828;BME280;22766;48.042;11.192;2023-03-21T04:18:15;95122.00;;;5.28;100.00
36828;BME280;22766;48.042;11.192;2023-03-21T04:20:42;95111.25;;;5.34;100.00
36828;BME280;22766;48.042;11.192;2023-03-21T04:23:11;95107.22;;;5.31;100.00
36828;BME280;22766;48.042;11.192;2023-03-21T04:25:43;95111.16;;;5.35;100.00
36828;BME280;22766;48.042;11.192;2023-03-21T04:28:26;95106.97;;;5.34;100.00
36828;BME280;22766;48.042;11.192;2023-03-21T04:31:24;95110.91;;;5.38;100.00
36828;BME280;22766;48.042;11.192;2023-03-21T04:34:08;95111.75;;;5.39;100.00
36828;BME280;22766;48.042;11.192;2023-03-21T04:36:41;95101.50;;;5.39;100.00
36828;BME280;22766;48.042;11.192;2023-03-21T04:39:10;95103.00;;;5.41;100.00
36828;BME280;22766;48.042;11.192;2023-03-21T04:41:40;95109.75;;;5.42;100.00
36828;BME280;22766;48.042;11.192;2023-03-21T04:44:08;95117.91;;;5.36;100.00
36828;BME280;22766;48.042;11.192;2023-03-21T04:46:35;95119.06;;;5.32;100.00
36828;BME280;22766;48.042;11.192;2023-03-21T04:49:03;95110.38;;;5.24;100.00
36828;BME280;22766;48.042;11.192;2023-03-21T04:51:30;95107.09;;;5.22;100.00
36828;BME280;22766;48.042;11.192;2023-03-21T04:53:57;95111.16;;;5.24;100.00
36828;BME280;22766;48.042;11.192;2023-03-21T04:56:25;95110.94;;;5.27;100.00
36828;BME280;22766;48.042;11.192;2023-03-21T04:58:59;95102.31;;;5.28;100.00
36828;BME280;22766;48.042;11.192;2023-03-21T05:01:26;95099.66;;;5.30;100.00
36828;BME280;22766;48.042;11.192;2023-03-21T05:03:57;95109.78;;;5.31;100.00
36828;BME280;22766;48.042;11.192;2023-03-21T05:06:25;95106.53;;;5.29;100.00
36828;BME280;22766;48.042;11.192;2023-03-21T05:08:55;95108.25;;;5.29;100.00
36828;BME280;22766;48.042;11.192;2023-03-21T05:11:34;95103.97;;;5.29;100.00
36828;BME280;22766;48.042;11.192;2023-03-21T05:14:04;95103.13;;;5.29;100.00
36828;BME280;22766;48.042;11.192;2023-03-21T05:16:31;95095.59;;;5.27;100.00
36828;BME280;22766;48.042;11.192;2023-03-21T05:18:58;95094.53;;;5.30;100.00
36828;BME280;22766;48.042;11.192;2023-03-21T05:21:33;95090.34;;;5.29;100.00
36828;BME280;22766;48.042;11.192;2023-03-21T05:24:17;95094.75;;;5.27;100.00
36828;BME280;22766;48.042;11.192;2023-03-21T05:26:45;95093.94;;;5.26;100.00
36828;BME280;22766;48.042;11.192;2023-03-21T05:29:24;95097.19;;;5.28;100.00
36828;BME280;22766;48.042;11.192;2023-03-21T05:32:04;95104.41;;;5.34;100.00
36828;BME280;22766;48.042;11.192;2023-03-21T05:34:30;95108.03;;;5.32;100.00
36828;BME280;22766;48.042;11.192;2023-03-21T05:36:58;95108.03;;;5.32;100.00
36828;BME280;22766;48.042;11.192;2023-03-21T05:39:35;95110.00;;;5.28;100.00
36828;BME280;22766;48.042;11.192;2023-03-21T05:42:09;95112.09;;;5.23;100.00
36828;BME280;22766;48.042;11.192;2023-03-21T05:44:36;95115.69;;;5.21;100.00
36828;BME280;22766;48.042;11.192;2023-03-21T05:47:07;95116.28;;;5.24;100.00
36828;BME280;22766;48.042;11.192;2023-03-21T05:49:42;95116.63;;;5.31;100.00
36828;BME280;22766;48.042;11.192;2023-03-21T05:52:09;95122.09;;;5.37;100.00
36828;BME280;22766;48.042;11.192;2023-03-21T05:54:36;95117.56;;;5.41;100.00
36828;BME280;22766;48.042;11.192;2023-03-21T05:57:04;95128.13;;;5.47;100.00
36828;BME280;22766;48.042;11.192;2023-03-21T05:59:49;95122.66;;;5.52;100.00
36828;BME280;22766;48.042;11.192;2023-03-21T06:02:17;95124.63;;;5.59;100.00
36828;BME280;22766;48.042;11.192;2023-03-21T06:04:45;95118.22;;;5.65;100.00
36828;BME280;22766;48.042;11.192;2023-03-21T06:07:12;95118.56;;;5.72;100.00
36828;BME280;22766;48.042;11.192;2023-03-21T06:09:39;95118.19;;;5.76;100.00
36828;BME280;22766;48.042;11.192;2023-03-21T06:12:06;95120.53;;;5.79;100.00
36828;BME280;22766;48.042;11.192;2023-03-21T06:14:49;95116.09;;;5.81;100.00
36828;BME280;22766;48.042;11.192;2023-03-21T06:17:26;95119.13;;;5.86;100.00
36828;BME280;22766;48.042;11.192;2023-03-21T06:19:59;95113.41;;;5.83;100.00
36828;BME280;22766;48.042;11.192;2023-03-21T06:22:35;95114.31;;;5.82;100.00
36828;BME280;22766;48.042;11.192;2023-03-21T06:25:03;95119.91;;;5.76;100.00
36828;BME280;22766;48.042;11.192;2023-03-21T06:27:30;95120.06;;;5.74;100.00
36828;BME280;22766;48.042;11.192;2023-03-21T06:29:57;95124.13;;;5.77;100.00
36828;BME280;22766;48.042;11.192;2023-03-21T06:32:26;95124.13;;;5.77;100.00
36828;BME280;22766;48.042;11.192;2023-03-21T06:34:57;95126.94;;;5.85;100.00
36828;BME280;22766;48.042;11.192;2023-03-21T06:37:24;95123.66;;;5.94;100.00
36828;BME280;22766;48.042;11.192;2023-03-21T06:39:52;95132.00;;;6.07;100.00
36828;BME280;22766;48.042;11.192;2023-03-21T06:42:21;95122.63;;;6.17;100.00
36828;BME280;22766;48.042;11.192;2023-03-21T06:44:48;95116.06;;;6.24;100.00
36828;BME280;22766;48.042;11.192;2023-03-21T06:47:15;95124.88;;;6.31;100.00
36828;BME280;22766;48.042;11.192;2023-03-21T06:49:43;95131.97;;;6.38;100.00
36828;BME280;22766;48.042;11.192;2023-03-21T06:52:12;95133.00;;;6.47;100.00
36828;BME280;22766;48.042;11.192;2023-03-21T06:54:39;95130.38;;;6.58;100.00
36828;BME280;22766;48.042;11.192;2023-03-21T06:57:16;95139.19;;;6.65;100.00
36828;BME280;22766;48.042;11.192;2023-03-21T06:59:43;95131.81;;;6.72;100.00
36828;BME280;22766;48.042;11.192;2023-03-21T07:02:17;95131.44;;;6.76;100.00
36828;BME280;22766;48.042;11.192;2023-03-21T07:04:56;95134.44;;;6.81;100.00
36828;BME280;22766;48.042;11.192;2023-03-21T07:07:26;95129.72;;;6.86;100.00
36828;BME280;22766;48.042;11.192;2023-03-21T07:09:55;95131.09;;;6.90;100.00
36828;BME280;22766;48.042;11.192;2023-03-21T07:12:23;95133.44;;;6.93;100.00
36828;BME280;22766;48.042;11.192;2023-03-21T07:15:03;95132.09;;;6.99;100.00
36828;BME280;22766;48.042;11.192;2023-03-21T07:17:32;95139.59;;;7.11;100.00
36828;BME280;22766;48.042;11.192;2023-03-21T07:19:59;95127.63;;;7.21;100.00
36828;BME280;22766;48.042;11.192;2023-03-21T07:22:27;95134.13;;;7.25;100.00
36828;BME280;22766;48.042;11.192;2023-03-21T07:24:54;95134.03;;;7.36;100.00
36828;BME280;22766;48.042;11.192;2023-03-21T07:27:36;95137.56;;;7.45;100.00
36828;BME280;22766;48.042;11.192;2023-03-21T07:30:07;95135.31;;;7.51;100.00
36828;BME280;22766;48.042;11.192;2023-03-21T07:32:34;95135.03;;;7.54;100.00
36828;BME280;22766;48.042;11.192;2023-03-21T07:35:08;95128.56;;;7.60;100.00
36828;BME280;22766;48.042;11.192;2023-03-21T07:37:37;95139.81;;;7.69;100.00
36828;BME280;22766;48.042;11.192;2023-03-21T07:40:05;95132.13;;;7.78;100.00
36828;BME280;22766;48.042;11.192;2023-03-21T07:42:40;95133.63;;;7.81;100.00
36828;BME280;22766;48.042;11.192;2023-03-21T07:45:10;95140.41;;;7.91;100.00
36828;BME280;22766;48.042;11.192;2023-03-21T07:47:38;95137.44;;;7.86;100.00
36828;BME280;22766;48.042;11.192;2023-03-21T07:50:04;95132.53;;;7.83;100.00
36828;BME280;22766;48.042;11.192;2023-03-21T07:52:32;95138.78;;;7.81;100.00
36828;BME280;22766;48.042;11.192;2023-03-21T07:54:58;95136.34;;;7.89;100.00
36828;BME280;22766;48.042;11.192;2023-03-21T07:57:25;95136.78;;;7.94;100.00
36828;BME280;22766;48.042;11.192;2023-03-21T07:59:51;95140.03;;;8.05;100.00
36828;BME280;22766;48.042;11.192;2023-03-21T08:02:18;95136.03;;;8.31;100.00
36828;BME280;22766;48.042;11.192;2023-03-21T08:04:45;95137.22;;;8.46;100.00
36828;BME280;22766;48.042;11.192;2023-03-21T08:07:12;95134.91;;;8.53;100.00
36828;BME280;22766;48.042;11.192;2023-03-21T08:09:39;95131.81;;;8.40;100.00
36828;BME280;22766;48.042;11.192;2023-03-21T08:12:06;95133.69;;;8.28;100.00
36828;BME280;22766;48.042;11.192;2023-03-21T08:14:35;95138.72;;;8.30;100.00
36828;BME280;22766;48.042;11.192;2023-03-21T08:17:03;95134.28;;;8.32;100.00
36828;BME280;22766;48.042;11.192;2023-03-21T08:19:31;95143.88;;;8.39;100.00
36828;BME280;22766;48.042;11.192;2023-03-21T08:21:58;95142.53;;;8.45;100.00
36828;BME280;22766;48.042;11.192;2023-03-21T08:24:26;95144.00;;;8.57;100.00
36828;BME280;22766;48.042;11.192;2023-03-21T08:26:53;95136.28;;;8.47;100.00
36828;BME280;22766;48.042;11.192;2023-03-21T08:29:20;95144.53;;;8.51;100.00
36828;BME280;22766;48.042;11.192;2023-03-21T08:31:47;95135.34;;;8.58;100.00
36828;BME280;22766;48.042;11.192;2023-03-21T08:34:14;95132.91;;;8.66;100.00
36828;BME280;22766;48.042;11.192;2023-03-21T08:36:40;95140.63;;;8.66;100.00
36828;BME280;22766;48.042;11.192;2023-03-21T08:39:07;95137.63;;;8.61;100.00
36828;BME280;22766;48.042;11.192;2023-03-21T08:41:35;95135.88;;;8.62;100.00
36828;BME280;22766;48.042;11.192;2023-03-21T08:44:04;95133.28;;;8.71;100.00
36828;BME280;22766;48.042;11.192;2023-03-21T08:46:32;95129.75;;;8.72;100.00
36828;BME280;22766;48.042;11.192;2023-03-21T08:48:59;95125.97;;;8.76;100.00
36828;BME280;22766;48.042;11.192;2023-03-21T08:51:26;95119.75;;;8.69;100.00
36828;BME280;22766;48.042;11.192;2023-03-21T08:53:52;95123.94;;;8.70;100.00
36828;BME280;22766;48.042;11.192;2023-03-21T08:56:19;95127.31;;;8.80;100.00
36828;BME280;22766;48.042;11.192;2023-03-21T08:58:46;95116.69;;;8.93;100.00
36828;BME280;22766;48.042;11.192;2023-03-21T09:01:13;95128.59;;;9.13;100.00
36828;BME280;22766;48.042;11.192;2023-03-21T09:03:42;95122.63;;;9.12;100.00
36828;BME280;22766;48.042;11.192;2023-03-21T09:06:09;95111.09;;;9.16;100.00
36828;BME280;22766;48.042;11.192;2023-03-21T09:08:40;95116.59;;;9.31;100.00
36828;BME280;22766;48.042;11.192;2023-03-21T09:11:11;95114.59;;;9.52;100.00
36828;BME280;22766;48.042;11.192;2023-03-21T09:13:38;95118.72;;;9.72;100.00
36828;BME280;22766;48.042;11.192;2023-03-21T09:16:05;95112.31;;;9.76;100.00
36828;BME280;22766;48.042;11.192;2023-03-21T09:18:33;95116.56;;;9.95;100.00
36828;BME280;22766;48.042;11.192;2023-03-21T09:21:16;95113.22;;;10.12;100.00
36828;BME280;22766;48.042;11.192;2023-03-21T09:23:44;95112.47;;;10.19;100.00
36828;BME280;22766;48.042;11.192;2023-03-21T09:26:11;95113.88;;;10.14;100.00
36828;BME280;22766;48.042;11.192;2023-03-21T09:28:39;95108.25;;;10.36;100.00
36828;BME280;22766;48.042;11.192;2023-03-21T09:31:06;95111.03;;;10.60;100.00
36828;BME280;22766;48.042;11.192;2023-03-21T09:33:38;95112.75;;;10.52;100.00
36828;BME280;22766;48.042;11.192;2023-03-21T09:36:08;95115.38;;;10.77;100.00
36828;BME280;22766;48.042;11.192;2023-03-21T09:38:40;95112.28;;;10.74;100.00
36828;BME280;22766;48.042;11.192;2023-03-21T09:49:51;95103.28;;;11.29;94.97
36828;BME280;22766;48.042;11.192;2023-03-21T09:55:27;95097.25;;;11.54;97.26
36828;BME280;22766;48.042;11.192;2023-03-21T10:00:43;95106.44;;;11.82;91.96
36828;BME280;22766;48.042;11.192;2023-03-21T10:03:20;95103.38;;;11.45;91.79
36828;BME280;22766;48.042;11.192;2023-03-21T10:05:53;95097.53;;;11.43;94.16
36828;BME280;22766;48.042;11.192;2023-03-21T10:08:27;95103.31;;;11.37;94.82
36828;BME280;22766;48.042;11.192;2023-03-21T10:11:05;95099.88;;;11.28;96.51
36828;BME280;22766;48.042;11.192;2023-03-21T10:13:43;95094.34;;;11.57;94.83
36828;BME280;22766;48.042;11.192;2023-03-21T10:16:15;95090.84;;;12.24;88.85
36828;BME280;22766;48.042;11.192;2023-03-21T10:18:43;95092.53;;;11.75;88.49
36828;BME280;22766;48.042;11.192;2023-03-21T10:21:20;95092.16;;;11.70;89.55
36828;BME280;22766;48.042;11.192;2023-03-21T10:24:10;95091.09;;;11.55;91.65
36828;BME280;22766;48.042;11.192;2023-03-21T10:26:37;95090.72;;;11.68;90.13
36828;BME280;22766;48.042;11.192;2023-03-21T10:29:04;95078.34;;;12.03;86.05
36828;BME280;22766;48.042;11.192;2023-03-21T10:31:32;95079.31;;;11.94;85.80
36828;BME280;22766;48.042;11.192;2023-03-21T10:34:03;95067.88;;;12.21;88.09
36828;BME280;22766;48.042;11.192;2023-03-21T10:36:32;95075.81;;;12.84;83.15
36828;BME280;22766;48.042;11.192;2023-03-21T10:39:04;95075.66;;;12.61;83.88
36828;BME280;22766;48.042;11.192;2023-03-21T10:41:32;95070.81;;;12.74;82.42
36828;BME280;22766;48.042;11.192;2023-03-21T10:46:30;95060.88;;;13.18;81.39
36828;BME280;22766;48.042;11.192;2023-03-21T10:49:01;95053.75;;;13.59;72.09
36828;BME280;22766;48.042;11.192;2023-03-21T10:51:35;95055.78;;;13.41;71.59
36828;BME280;22766;48.042;11.192;2023-03-21T10:54:10;95052.41;;;13.71;68.34
36828;BME280;22766;48.042;11.192;2023-03-21T10:56:43;95049.28;;;13.45;65.28
36828;BME280;22766;48.042;11.192;2023-03-21T10:59:17;95061.59;;;12.48;67.93
36828;BME280;22766;48.042;11.192;2023-03-21T11:01:49;95047.44;;;12.82;66.69
36828;BME280;22766;48.042;11.192;2023-03-21T11:04:20;95055.84;;;13.17;67.97
36828;BME280;22766;48.042;11.192;2023-03-21T11:06:53;95053.00;;;13.50;61.48
36828;BME280;22766;48.042;11.192;2023-03-21T11:09:23;95055.13;;;13.47;63.13
36828;BME280;22766;48.042;11.192;2023-03-21T11:11:55;95057.84;;;13.84;59.62
36828;BME280;22766;48.042;11.192;2023-03-21T11:19:53;95041.78;;;13.88;59.14
36828;BME280;22766;48.042;11.192;2023-03-21T11:22:24;95046.53;;;13.77;60.40
36828;BME280;22766;48.042;11.192;2023-03-21T11:24:57;95042.41;;;13.60;62.79
36828;BME280;22766;48.042;11.192;2023-03-21T11:27:30;95037.31;;;13.74;62.19
36828;BME280;22766;48.042;11.192;2023-03-21T11:29:59;95036.88;;;13.93;58.50
36828;BME280;22766;48.042;11.192;2023-03-21T11:32:35;95035.81;;;13.41;60.38
36828;BME280;22766;48.042;11.192;2023-03-21T11:35:21;95033.06;;;13.73;64.09
36828;BME280;22766;48.042;11.192;2023-03-21T11:37:54;95029.00;;;13.79;57.95
36828;BME280;22766;48.042;11.192;2023-03-21T11:40:31;95022.16;;;13.86;58.78
36828;BME280;22766;48.042;11.192;2023-03-21T11:43:23;95022.25;;;14.97;54.03
36828;BME280;22766;48.042;11.192;2023-03-21T11:46:00;95008.50;;;14.74;52.72
36828;BME280;22766;48.042;11.192;2023-03-21T11:48:37;95003.59;;;14.79;50.97
36828;BME280;22766;48.042;11.192;2023-03-21T11:54:10;94998.53;;;16.22;46.57
36828;BME280;22766;48.042;11.192;2023-03-21T12:09:54;94981.16;;;14.64;49.16
36828;BME280;22766;48.042;11.192;2023-03-21T12:12:40;94971.66;;;15.29;48.16
36828;BME280;22766;48.042;11.192;2023-03-21T12:15:15;94979.75;;;16.06;46.64
36828;BME280;22766;48.042;11.192;2023-03-21T12:18:08;94973.09;;;16.66;44.97
36828;BME280;22766;48.042;11.192;2023-03-21T12:27:22;94963.38;;;16.33;47.48
36828;BME280;22766;48.042;11.192;2023-03-21T12:32:30;94962.88;;;16.65;47.46
36828;BME280;22766;48.042;11.192;2023-03-21T12:37:52;94955.25;;;16.70;46.92
36828;BME280;22766;48.042;11.192;2023-03-21T12:43:16;94942.84;;;16.23;47.16
36828;BME280;22766;48.042;11.192;2023-03-21T12:45:52;94946.16;;;15.54;49.19
36828;BME280;22766;48.042;11.192;2023-03-21T12:50:56;94948.59;;;16.40;47.62
36828;BME280;22766;48.042;11.192;2023-03-21T12:56:15;94935.56;;;16.61;45.39
36828;BME280;22766;48.042;11.192;2023-03-21T12:58:48;94928.53;;;15.35;48.54
36828;BME280;22766;48.042;11.192;2023-03-21T13:01:17;94933.09;;;15.47;49.35
36828;BME280;22766;48.042;11.192;2023-03-21T13:03:49;94928.72;;;15.48;50.48
36828;BME280;22766;48.042;11.192;2023-03-21T13:06:19;94921.22;;;14.94;51.03
36828;BME280;22766;48.042;11.192;2023-03-21T13:08:59;94921.78;;;15.40;50.57
36828;BME280;22766;48.042;11.192;2023-03-21T13:11:30;94920.16;;;15.54;50.21
36828;BME280;22766;48.042;11.192;2023-03-21T13:14:21;94914.03;;;15.11;50.64
36828;BME280;22766;48.042;11.192;2023-03-21T13:16:55;94912.94;;;15.20;52.10
36828;BME280;22766;48.042;11.192;2023-03-21T13:19:36;94912.63;;;15.80;50.50
36828;BME280;22766;48.042;11.192;2023-03-21T13:22:10;94912.19;;;15.55;49.77
36828;BME280;22766;48.042;11.192;2023-03-21T13:32:24;94902.84;;;16.31;48.68
36828;BME280;22766;48.042;11.192;2023-03-21T13:34:59;94899.56;;;16.22;48.93
36828;BME280;22766;48.042;11.192;2023-03-21T13:37:34;94902.56;;;15.77;48.46
36828;BME280;22766;48.042;11.192;2023-03-21T13:40:19;94896.06;;;16.09;47.59
36828;BME280;22766;48.042;11.192;2023-03-21T13:42:51;94886.75;;;17.23;46.16
36828;BME280;22766;48.042;11.192;2023-03-21T13:46:12;94891.59;;;17.26;44.64
36828;BME280;22766;48.042;11.192;2023-03-21T13:48:30;94890.09;;;16.70;45.74
36828;BME280;22766;48.042;11.192;2023-03-21T13:56:48;94878.44;;;16.38;47.11
36828;BME280;22766;48.042;11.192;2023-03-21T14:02:45;94880.72;;;17.96;42.57
36828;BME280;22766;48.042;11.192;2023-03-21T14:05:05;94876.91;;;18.25;42.08
36828;BME280;22766;48.042;11.192;2023-03-21T14:07:35;94873.25;;;17.80;42.66
36828;BME280;22766;48.042;11.192;2023-03-21T14:10:12;94872.75;;;17.37;44.53
36828;BME280;22766;48.042;11.192;2023-03-21T14:12:43;94867.34;;;16.92;46.51
36828;BME280;22766;48.042;11.192;2023-03-21T14:15:24;94872.63;;;16.98;46.04
36828;BME280;22766;48.042;11.192;2023-03-21T14:17:55;94874.28;;;17.19;44.25
36828;BME280;22766;48.042;11.192;2023-03-21T14:20:24;94868.88;;;17.20;44.27
36828;BME280;22766;48.042;11.192;2023-03-21T14:22:52;94862.59;;;17.08;44.12
36828;BME280;22766;48.042;11.192;2023-03-21T14:25:20;94861.25;;;17.19;43.25
36828;BME280;22766;48.042;11.192;2023-03-21T14:27:54;94861.00;;;16.66;44.97
36828;BME280;22766;48.042;11.192;2023-03-21T14:30:28;94854.06;;;16.18;47.13
36828;BME280;22766;48.042;11.192;2023-03-21T14:33:00;94852.63;;;16.16;46.25
36828;BME280;22766;48.042;11.192;2023-03-21T14:35:29;94855.44;;;15.44;49.19
36828;BME280;22766;48.042;11.192;2023-03-21T14:38:04;94842.34;;;15.59;51.07
36828;BME280;22766;48.042;11.192;2023-03-21T14:40:32;94846.00;;;16.41;49.17
36828;BME280;22766;48.042;11.192;2023-03-21T14:43:04;94843.44;;;16.81;48.12
36828;BME280;22766;48.042;11.192;2023-03-21T14:45:34;94846.44;;;17.39;46.62
36828;BME280;22766;48.042;11.192;2023-03-21T14:50:56;94845.34;;;18.59;39.85
36828;BME280;22766;48.042;11.192;2023-03-21T14:53:32;94839.75;;;18.42;41.02
36828;BME280;22766;48.042;11.192;2023-03-21T14:56:06;94833.28;;;18.32;40.19
36828;BME280;22766;48.042;11.192;2023-03-21T14:58:39;94826.47;;;18.44;40.34
36828;BME280;22766;48.042;11.192;2023-03-21T15:01:13;94824.44;;;17.94;42.27
36828;BME280;22766;48.042;11.192;2023-03-21T15:03:44;94823.03;;;18.11;41.33
36828;BME280;22766;48.042;11.192;2023-03-21T15:06:12;94826.47;;;17.72;42.42
36828;BME280;22766;48.042;11.192;2023-03-21T15:08:55;94831.88;;;18.03;42.51
36828;BME280;22766;48.042;11.192;2023-03-21T15:11:34;94818.91;;;18.80;39.86
36828;BME280;22766;48.042;11.192;2023-03-21T15:14:04;94819.00;;;18.28;41.07
36828;BME280;22766;48.042;11.192;2023-03-21T15:16:33;94812.19;;;18.14;41.78
36828;BME280;22766;48.042;11.192;2023-03-21T15:19:00;94827.38;;;17.38;44.82
36828;BME280;22766;48.042;11.192;2023-03-21T15:21:31;94819.00;;;16.89;45.77
36828;BME280;22766;48.042;11.192;2023-03-21T15:26:44;94825.25;;;15.99;47.64
36828;BME280;22766;48.042;11.192;2023-03-21T15:29:12;94818.91;;;16.35;47.88
36828;BME280;22766;48.042;11.192;2023-03-21T15:31:40;94818.63;;;15.68;53.78
36828;BME280;22766;48.042;11.192;2023-03-21T15:34:17;94815.88;;;15.34;59.61
36828;BME280;22766;48.042;11.192;2023-03-21T15:36:46;94813.16;;;15.07;59.93
36828;BME280;22766;48.042;11.192;2023-03-21T15:39:18;94817.81;;;15.11;61.03
36828;BME280;22766;48.042;11.192;2023-03-21T15:42:02;94811.41;;;14.92;61.02
36828;BME280;22766;48.042;11.192;2023-03-21T15:44:30;94817.38;;;14.57;62.45
36828;BME280;22766;48.042;11.192;2023-03-21T15:46:57;94816.38;;;14.44;62.77
36828;BME280;22766;48.042;11.192;2023-03-21T15:49:29;94811.25;;;14.21;68.83
36828;BME280;22766;48.042;11.192;2023-03-21T15:52:06;94810.06;;;14.32;68.11
36828;BME280;22766;48.042;11.192;2023-03-21T15:54:45;94809.94;;;14.54;67.01
36828;BME280;22766;48.042;11.192;2023-03-21T15:57:31;94812.63;;;14.46;68.60
36828;BME280;22766;48.042;11.192;2023-03-21T16:00:06;94817.66;;;14.33;72.00
36828;BME280;22766;48.042;11.192;2023-03-21T16:02:39;94829.88;;;14.25;71.46
36828;BME280;22766;48.042;11.192;2023-03-21T16:05:32;94816.28;;;14.23;75.54
36828;BME280;22766;48.042;11.192;2023-03-21T16:08:04;94820.13;;;14.12;72.09
36828;BME280;22766;48.042;11.192;2023-03-21T16:10:35;94824.34;;;14.13;74.76
36828;BME280;22766;48.042;11.192;2023-03-21T16:13:03;94823.53;;;14.13;73.26
36828;BME280;22766;48.042;11.192;2023-03-21T16:15:31;94817.25;;;14.07;73.96
36828;BME280;22766;48.042;11.192;2023-03-21T16:18:02;94826.19;;;13.90;73.26
36828;BME280;22766;48.042;11.192;2023-03-21T16:20:33;94824.75;;;13.87;77.22
36828;BME280;22766;48.042;11.192;2023-03-21T16:23:00;94829.59;;;13.68;76.01
36828;BME280;22766;48.042;11.192;2023-03-21T16:25:29;94828.25;;;13.57;77.97
36828;BME280;22766;48.042;11.192;2023-03-21T16:27:56;94826.91;;;13.61;77.91
36828;BME280;22766;48.042;11.192;2023-03-21T16:30:23;94820.47;;;13.57;77.17
36828;BME280;22766;48.042;11.192;2023-03-21T16:32:50;94819.44;;;13.44;81.39
36828;BME280;22766;48.042;11.192;2023-03-21T16:35:18;94826.13;;;13.38;78.08
36828;BME280;22766;48.042;11.192;2023-03-21T16:37:48;94828.31;;;13.27;80.56
36828;BME280;22766;48.042;11.192;2023-03-21T16:40:36;94827.94;;;13.07;82.94
36828;BME280;22766;48.042;11.192;2023-03-21T16:43:05;94832.19;;;12.92;85.36
36828;BME280;22766;48.042;11.192;2023-03-21T16:45:32;94828.50;;;12.86;83.17
36828;BME280;22766;48.042;11.192;2023-03-21T16:47:59;94832.75;;;12.79;81.61
36828;BME280;22766;48.042;11.192;2023-03-21T16:50:39;94827.78;;;12.70;87.19
36828;BME280;22766;48.042;11.192;2023-03-21T16:53:08;94838.66;;;12.65;88.00
36828;BME280;22766;48.042;11.192;2023-03-21T16:55:35;94834.47;;;12.56;89.95
36828;BME280;22766;48.042;11.192;2023-03-21T16:58:02;94837.59;;;12.52;88.03
36828;BME280;22766;48.042;11.192;2023-03-21T17:00:29;94842.63;;;12.45;91.10
36828;BME280;22766;48.042;11.192;2023-03-21T17:03:00;94849.75;;;12.35;89.56
36828;BME280;22766;48.042;11.192;2023-03-21T17:05:27;94845.41;;;12.28;91.59
36828;BME280;22766;48.042;11.192;2023-03-21T17:07:56;94838.81;;;12.17;95.06
36828;BME280;22766;48.042;11.192;2023-03-21T17:10:26;94840.13;;;12.05;97.05